Time;durP1;ratioP1;P1;durP2;ratioP2;P2;SDS_P1;SDS_P2;PMS_P1;PMS_P2;Temp;Humidity;BMP_temperature;BMP_pressure;BME280_temperature;BME280_humidity;BME280_pressure;Samples;Min_cycle;Max_cycle;Signal;HPM_P1;HPM_P2
2023/09/07 00:03:28;;;;;;;0.10;0.00;;;;;;;22.49;100.00;101916.19;10404575;28;20080;-74
2023/09/07 00:08:30;;;;;;;0.00;0.00;;;;;;;22.49;100.00;101918.81;10404637;28;20381;-74
2023/09/07 00:13:33;;;;;;;0.00;0.00;;;;;;;22.43;100.00;101918.84;10405339;28;20081;-74
2023/09/07 00:18:35;;;;;;;0.00;0.00;;;;;;;21.92;100.00;101918.28;10391538;28;20046;-74
2023/09/07 00:23:36;;;;;;;0.10;0.10;;;;;;;22.35;100.00;101920.63;10389394;28;20053;-74
2023/09/07 00:28:38;;;;;;;0.00;0.00;;;;;;;22.33;100.00;101925.00;10393256;28;20403;-74
2023/09/07 00:33:40;;;;;;;0.00;0.00;;;;;;;21.89;100.00;101924.41;10432505;28;20041;-74
2023/09/07 00:38:41;;;;;;;0.00;0.00;;;;;;;22.02;100.00;101938.31;10406210;28;20556;-74
2023/09/07 00:43:43;;;;;;;0.05;0.05;;;;;;;21.97;100.00;101927.84;10408058;28;20048;-74
2023/09/07 00:48:45;;;;;;;0.10;0.10;;;;;;;21.86;100.00;101929.66;10390755;28;20455;-74
2023/09/07 00:53:47;;;;;;;0.00;0.00;;;;;;;21.59;100.00;101920.16;10398696;28;20061;-74
2023/09/07 00:58:49;;;;;;;0.00;0.00;;;;;;;21.48;100.00;101917.53;10399864;28;20065;-74
2023/09/07 01:03:51;;;;;;;0.00;0.00;;;;;;;21.89;100.00;101919.16;10405548;28;20069;-74
2023/09/07 01:08:57;;;;;;;0.05;0.05;;;;;;;21.73;100.00;101913.09;10402157;28;20045;-74
2023/09/07 01:13:59;;;;;;;0.08;0.08;;;;;;;21.33;100.00;101916.72;10392594;28;20052;-75
2023/09/07 01:19:01;;;;;;;0.00;0.00;;;;;;;21.37;100.00;101915.81;10389761;28;20382;-74
2023/09/07 01:24:08;;;;;;;0.00;0.00;;;;;;;21.15;100.00;101917.63;10387029;28;20176;-73
2023/09/07 01:29:09;;;;;;;0.10;0.10;;;;;;;21.54;100.00;101913.16;10396221;28;20046;-74
2023/09/07 01:34:12;;;;;;;0.20;0.13;;;;;;;21.19;100.00;101908.03;10390644;28;20551;-73
2023/09/07 01:39:13;;;;;;;0.75;0.43;;;;;;;21.39;100.00;101897.50;10394113;28;20055;-74
2023/09/07 01:44:15;;;;;;;0.15;0.15;;;;;;;21.18;100.00;101896.69;10406766;28;20121;-75
2023/09/07 01:49:16;;;;;;;0.45;0.32;;;;;;;21.44;100.00;101900.97;10407523;28;20041;-74
2023/09/07 01:54:18;;;;;;;0.00;0.00;;;;;;;21.44;100.00;101898.34;10382781;28;20156;-75
2023/09/07 01:59:20;;;;;;;0.10;0.10;;;;;;;21.12;100.00;101896.66;10400271;28;20048;-75
2023/09/07 02:04:22;;;;;;;0.00;0.00;;;;;;;21.02;100.00;101900.22;10386948;28;20045;-74
2023/09/07 02:09:23;;;;;;;0.00;0.00;;;;;;;21.19;100.00;101900.16;10381201;28;20042;-74
2023/09/07 02:14:25;;;;;;;0.00;0.00;;;;;;;21.39;100.00;101902.72;10395012;28;20143;-75
2023/09/07 02:19:27;;;;;;;0.00;0.00;;;;;;;20.80;100.00;101895.00;10399629;28;20049;-75
2023/09/07 02:24:28;;;;;;;0.00;0.00;;;;;;;21.13;100.00;101898.41;10420154;28;20412;-74
2023/09/07 02:29:30;;;;;;;0.10;0.10;;;;;;;21.23;100.00;101900.16;10411446;28;20064;-74
2023/09/07 02:34:32;;;;;;;0.00;0.00;;;;;;;20.98;100.00;101891.47;10380701;28;20038;-75
2023/09/07 02:39:33;;;;;;;0.03;0.03;;;;;;;20.83;100.00;101892.34;10401796;28;20041;-74
2023/09/07 02:44:35;;;;;;;1.27;0.20;;;;;;;20.84;100.00;101881.00;10424442;28;20068;-75
2023/09/07 02:49:37;;;;;;;0.15;0.05;;;;;;;21.03;100.00;101883.63;10401521;28;20069;-75
2023/09/07 02:54:39;;;;;;;0.47;0.10;;;;;;;20.75;100.00;101875.78;10410418;28;20041;-74
2023/09/07 02:59:41;;;;;;;0.00;0.00;;;;;;;20.79;100.00;101879.25;10408338;28;20046;-74
2023/09/07 03:04:42;;;;;;;0.00;0.00;;;;;;;20.84;100.00;101886.25;10405490;28;20041;-74
2023/09/07 03:09:44;;;;;;;0.00;0.00;;;;;;;20.69;100.00;101889.75;10424267;28;20484;-74
2023/09/07 03:14:46;;;;;;;0.13;0.10;;;;;;;20.69;100.00;101878.38;10380414;28;20049;-75
2023/09/07 03:19:48;;;;;;;0.00;0.00;;;;;;;20.69;100.00;101887.13;10396737;28;20053;-74
2023/09/07 03:24:51;;;;;;;0.03;0.03;;;;;;;20.75;100.00;101888.88;10419910;28;20140;-74
2023/09/07 03:29:53;;;;;;;0.10;0.10;;;;;;;20.56;100.00;101888.88;10383752;28;20075;-74
2023/09/07 03:34:56;;;;;;;0.00;0.00;;;;;;;20.40;100.00;101887.09;10400836;28;20088;-75
2023/09/07 03:39:57;;;;;;;0.00;0.00;;;;;;;20.27;100.00;101894.97;10406001;28;20045;-74
2023/09/07 03:45:00;;;;;;;0.20;0.10;;;;;;;20.31;100.00;101892.31;10390941;28;20061;-74
2023/09/07 03:50:03;;;;;;;0.00;0.00;;;;;;;20.32;100.00;101894.06;10411574;28;20048;-74
2023/09/07 03:55:06;;;;;;;0.10;0.10;;;;;;;19.95;100.00;101885.28;10402874;28;20053;-74
2023/09/07 04:00:09;;;;;;;0.00;0.00;;;;;;;19.91;100.00;101891.41;10404605;28;20496;-74
2023/09/07 04:05:17;;;;;;;0.00;0.00;;;;;;;20.06;100.00;101889.69;10402746;28;20099;-75
2023/09/07 04:10:19;;;;;;;0.10;0.10;;;;;;;19.36;100.00;101888.53;10394100;28;20128;-75
2023/09/07 04:15:21;;;;;;;0.00;0.00;;;;;;;19.91;100.00;101885.28;10405390;28;20041;-74
2023/09/07 04:20:23;;;;;;;0.75;0.10;;;;;;;20.01;100.00;101894.00;10407910;28;20128;-74
2023/09/07 04:25:25;;;;;;;0.10;0.10;;;;;;;19.73;100.00;101894.78;10401211;28;20045;-74
2023/09/07 04:30:27;;;;;;;0.20;0.10;;;;;;;19.70;100.00;101896.50;10409324;28;20056;-75
2023/09/07 04:35:32;;;;;;;0.00;0.00;;;;;;;19.86;100.00;101890.50;10424100;28;20045;-74
2023/09/07 04:40:34;;;;;;;0.03;0.03;;;;;;;20.19;100.00;101899.31;10406961;28;20038;-75
2023/09/07 04:45:35;;;;;;;0.00;0.00;;;;;;;20.19;100.00;101891.44;10400260;28;20519;-75
2023/09/07 04:50:37;;;;;;;0.32;0.30;;;;;;;19.60;100.00;101891.25;10423816;28;20047;-75
2023/09/07 04:55:39;;;;;;;0.43;0.35;;;;;;;19.89;100.00;101894.84;10395907;28;20055;-73
2023/09/07 05:00:41;;;;;;;0.38;0.10;;;;;;;20.00;100.00;101892.25;10413936;28;20045;-75
2023/09/07 05:05:46;;;;;;;0.20;0.10;;;;;;;19.90;100.00;101896.59;10376098;28;20132;-73
2023/09/07 05:10:48;;;;;;;0.00;0.00;;;;;;;20.10;100.00;101894.03;10422039;28;20833;-73
2023/09/07 05:15:53;;;;;;;0.10;0.10;;;;;;;20.04;100.00;101899.28;10395018;28;20046;-75
2023/09/07 05:20:55;;;;;;;0.28;0.28;;;;;;;20.48;100.00;101905.44;10426468;28;20041;-74
2023/09/07 05:25:57;;;;;;;0.25;0.20;;;;;;;20.32;100.00;101915.91;10387201;28;20045;-74
2023/09/07 05:31:00;;;;;;;0.00;0.00;;;;;;;20.45;100.00;101915.03;10383068;28;20131;-74
2023/09/07 05:36:03;;;;;;;0.00;0.00;;;;;;;20.11;100.00;101917.59;10400241;28;20168;-75
2023/09/07 05:41:06;;;;;;;0.10;0.10;;;;;;;20.31;100.00;101915.88;10382160;28;20148;-75
2023/09/07 05:46:08;;;;;;;0.00;0.00;;;;;;;20.29;100.00;101914.13;10401871;28;20052;-74
2023/09/07 05:51:10;;;;;;;0.00;0.00;;;;;;;21.00;100.00;101917.66;10417300;28;20049;-74
2023/09/07 05:56:12;;;;;;;0.55;0.32;;;;;;;21.34;100.00;101925.44;10381287;28;20065;-75
2023/09/07 06:01:40;;;;;;;0.00;0.00;;;;;;;21.77;100.00;101935.84;10409032;28;20029;-75
2023/09/07 06:06:41;;;;;;;0.00;0.00;;;;;;;21.89;100.00;101939.25;10393886;28;20500;-75
2023/09/07 06:11:43;;;;;;;0.10;0.10;;;;;;;21.93;100.00;101935.75;10406482;28;20075;-76
2023/09/07 06:16:45;;;;;;;0.00;0.00;;;;;;;22.02;100.00;101941.84;10402148;28;20057;-74
2023/09/07 06:21:47;;;;;;;0.43;0.10;;;;;;;22.38;100.00;101943.34;10401793;28;20045;-74
2023/09/07 06:26:49;;;;;;;0.00;0.00;;;;;;;22.90;100.00;101931.56;10402555;28;20052;-75
2023/09/07 06:31:52;;;;;;;0.00;0.00;;;;;;;23.58;100.00;101944.03;10437649;28;20037;-74
2023/09/07 06:36:55;;;;;;;0.20;0.20;;;;;;;23.35;100.00;101949.56;10402135;28;20049;-75
2023/09/07 06:41:57;;;;;;;0.38;0.28;;;;;;;23.70;100.00;101951.81;10401070;28;20068;-75
2023/09/07 06:47:04;;;;;;;0.00;0.00;;;;;;;24.82;100.00;101960.75;10399937;28;20045;-75
2023/09/07 06:52:06;;;;;;;1.83;0.20;;;;;;;25.28;100.00;101954.63;10422716;28;20404;-75
2023/09/07 06:57:10;;;;;;;0.08;0.00;;;;;;;27.13;100.00;101961.97;10400208;28;20045;-75
2023/09/07 07:02:12;;;;;;;0.17;0.15;;;;;;;27.82;100.00;101959.16;10406172;28;20055;-75
2023/09/07 07:07:14;;;;;;;0.55;0.28;;;;;;;27.35;100.00;101967.53;10394226;28;20099;-74
2023/09/07 07:12:15;;;;;;;0.20;0.20;;;;;;;28.32;100.00;101963.81;10396732;28;20045;-74
2023/09/07 07:17:17;;;;;;;0.38;0.30;;;;;;;29.09;100.00;101965.69;10417422;28;20389;-75
2023/09/07 07:22:19;;;;;;;0.15;0.13;;;;;;;29.50;100.00;101974.91;10426182;28;20069;-75
2023/09/07 07:27:23;;;;;;;0.47;0.17;;;;;;;29.26;100.00;101973.06;10411475;28;20049;-74
2023/09/07 07:32:25;;;;;;;1.17;0.45;;;;;;;29.24;100.00;101968.72;10424357;28;20060;-74
2023/09/07 07:37:27;;;;;;;0.05;0.05;;;;;;;30.86;100.00;101956.25;10394019;28;20057;-75
2023/09/07 07:42:29;;;;;;;0.30;0.30;;;;;;;30.20;100.00;101965.13;10396387;28;20678;-75
2023/09/07 07:47:30;;;;;;;0.55;0.43;;;;;;;30.96;100.00;101970.88;10370511;28;20072;-75
2023/09/07 07:52:32;;;;;;;0.52;0.50;;;;;;;30.57;100.00;101973.44;10383587;28;20041;-74
2023/09/07 07:57:34;;;;;;;0.10;0.10;;;;;;;31.77;100.00;101975.28;10423637;28;20041;-75
2023/09/07 08:02:37;;;;;;;2.05;0.68;;;;;;;30.82;100.00;101973.25;10410310;28;20045;-75
2023/09/07 08:07:39;;;;;;;0.40;0.20;;;;;;;31.82;100.00;101970.63;10394375;28;20045;-75
2023/09/07 08:12:41;;;;;;;0.00;0.00;;;;;;;31.70;100.00;101977.41;10404854;28;20053;-76
2023/09/07 08:17:43;;;;;;;0.10;0.10;;;;;;;32.01;100.00;101969.75;10413668;28;20441;-75
2023/09/07 08:22:45;;;;;;;0.00;0.00;;;;;;;32.15;100.00;101964.59;10384421;28;20091;-75
2023/09/07 08:27:47;;;;;;;0.00;0.00;;;;;;;31.91;100.00;101964.00;10403951;28;20049;-75
2023/09/07 08:32:51;;;;;;;0.00;0.00;;;;;;;33.28;100.00;101960.72;10397023;28;20107;-75
2023/09/07 08:37:55;;;;;;;0.00;0.00;;;;;;;33.29;100.00;101959.78;10384208;28;20072;-75
2023/09/07 08:42:56;;;;;;;0.32;0.17;;;;;;;33.40;100.00;101961.88;10371987;28;20492;-75
2023/09/07 08:47:59;;;;;;;0.05;0.05;;;;;;;32.57;100.00;101958.13;10386803;28;20123;-75
2023/09/07 08:53:03;;;;;;;0.45;0.30;;;;;;;33.84;100.00;101964.81;10399554;28;20072;-75
2023/09/07 08:58:05;;;;;;;0.30;0.20;;;;;;;34.37;100.00;101969.00;10388369;28;20041;-76
2023/09/07 09:03:07;;;;;;;0.17;0.17;;;;;;;34.42;100.00;101965.09;10393696;28;20051;-75
2023/09/07 09:08:09;;;;;;;2.50;0.38;;;;;;;32.87;100.00;101954.84;10410801;28;20053;-75
2023/09/07 09:13:13;;;;;;;0.25;0.22;;;;;;;33.25;100.00;101959.06;10411380;28;20083;-76
2023/09/07 09:18:15;;;;;;;0.43;0.13;;;;;;;33.58;100.00;101949.34;10430958;28;20136;-75
2023/09/07 09:23:17;;;;;;;0.38;0.10;;;;;;;36.01;100.00;101950.91;10385417;28;20045;-75
2023/09/07 09:28:19;;;;;;;0.28;0.25;;;;;;;36.35;100.00;101949.50;10394821;28;20060;-75
2023/09/07 09:33:22;;;;;;;0.73;0.25;;;;;;;36.16;100.00;101954.38;10396599;28;20050;-75
2023/09/07 09:38:25;;;;;;;1.30;0.20;;;;;;;34.72;100.00;101950.84;10398242;28;20061;-75
2023/09/07 09:43:27;;;;;;;0.10;0.10;;;;;;;36.71;100.00;101933.72;10393019;28;20045;-75
2023/09/07 09:48:31;;;;;;;0.80;0.32;;;;;;;36.65;100.00;101936.81;10401782;28;20401;-75
2023/09/07 09:53:34;;;;;;;0.10;0.10;;;;;;;34.97;100.00;101930.63;10379033;28;20503;-75
2023/09/07 09:58:37;;;;;;;0.17;0.15;;;;;;;35.52;100.00;101925.47;10413227;28;20073;-75
2023/09/07 10:03:49;;;;;;;0.93;0.60;;;;;;;36.71;100.00;101925.66;10398352;28;20048;-76
2023/09/07 10:08:54;;;;;;;0.10;0.10;;;;;;;36.65;100.00;101916.19;10395262;28;20535;-76
2023/09/07 10:14:00;;;;;;;0.15;0.15;;;;;;;35.83;100.00;101923.47;10409340;28;20047;-75
2023/09/07 10:19:02;;;;;;;0.03;0.03;;;;;;;36.02;100.00;101913.25;10387792;28;20105;-75
2023/09/07 10:24:04;;;;;;;0.30;0.20;;;;;;;36.13;100.00;101909.00;10382696;28;20076;-76
2023/09/07 10:29:06;;;;;;;0.00;0.00;;;;;;;35.73;100.00;101902.63;10399561;28;20428;-76
2023/09/07 10:34:12;;;;;;;0.25;0.20;;;;;;;35.94;100.00;101899.50;10385040;28;20065;-76
2023/09/07 10:39:13;;;;;;;0.30;0.28;;;;;;;35.94;100.00;101894.13;10409716;28;20532;-75
2023/09/07 10:44:26;;;;;;;0.00;0.00;;;;;;;36.61;100.00;101893.22;10415398;28;20045;-75
2023/09/07 10:49:28;;;;;;;0.20;0.10;;;;;;;36.86;100.00;101885.28;10386541;28;20129;-76
2023/09/07 10:54:29;;;;;;;4.28;0.10;;;;;;;36.38;100.00;101881.38;10394696;28;20417;-75
2023/09/07 10:59:31;;;;;;;1.25;0.63;;;;;;;36.16;100.00;101876.59;10362246;28;20046;-76
2023/09/07 11:04:33;;;;;;;0.00;0.00;;;;;;;36.61;100.00;101871.72;10406535;28;20049;-76
2023/09/07 11:09:40;;;;;;;0.25;0.10;;;;;;;36.54;100.00;101870.44;10430315;28;20045;-77
2023/09/07 11:14:41;;;;;;;0.00;0.00;;;;;;;36.38;100.00;101859.06;10423995;28;20404;-75
2023/09/07 11:19:43;;;;;;;0.10;0.10;;;;;;;35.79;100.00;101857.59;10401791;28;20429;-76
2023/09/07 11:24:46;;;;;;;0.22;0.22;;;;;;;35.15;100.00;101839.38;10418481;28;20528;-76
2023/09/07 11:29:52;;;;;;;0.15;0.13;;;;;;;35.40;99.39;101836.88;10405759;28;20045;-76
2023/09/07 11:34:55;;;;;;;0.20;0.20;;;;;;;35.53;100.00;101842.28;10423654;28;20048;-76
2023/09/07 11:40:00;;;;;;;0.20;0.13;;;;;;;34.96;99.77;101837.91;10408441;28;20045;-75
2023/09/07 11:45:01;;;;;;;0.40;0.30;;;;;;;35.97;100.00;101834.09;10398602;28;20064;-76
2023/09/07 11:50:04;;;;;;;0.10;0.10;;;;;;;35.02;96.03;101829.47;10398635;28;20048;-76
2023/09/07 11:55:05;;;;;;;0.40;0.22;;;;;;;34.46;99.63;101830.19;10405213;28;20049;-75
2023/09/07 12:00:11;;;;;;;0.20;0.20;;;;;;;34.76;96.68;101812.34;10390292;28;20540;-76
2023/09/07 12:05:14;;;;;;;0.20;0.10;;;;;;;35.23;100.00;101821.00;10419450;28;20061;-75
2023/09/07 12:10:16;;;;;;;0.25;0.20;;;;;;;34.32;100.00;101803.41;10387533;28;20045;-74
2023/09/07 12:15:18;;;;;;;0.25;0.20;;;;;;;34.73;100.00;101809.84;10412795;28;20045;-75
2023/09/07 12:20:21;;;;;;;3.50;0.28;;;;;;;35.00;100.00;101806.44;10399333;28;20045;-75
2023/09/07 12:25:22;;;;;;;0.20;0.10;;;;;;;34.50;99.02;101795.25;10411894;28;20103;-76
2023/09/07 12:30:24;;;;;;;0.20;0.17;;;;;;;34.81;99.84;101793.34;10408945;28;20056;-76
2023/09/07 12:35:26;;;;;;;0.15;0.05;;;;;;;34.47;100.00;101791.78;10424139;28;20091;-75
2023/09/07 12:40:28;;;;;;;0.28;0.25;;;;;;;34.90;100.00;101784.72;10393767;28;20037;-75
2023/09/07 12:45:30;;;;;;;0.13;0.13;;;;;;;35.05;100.00;101789.09;10412235;28;20514;-75
2023/09/07 12:50:31;;;;;;;0.20;0.20;;;;;;;33.97;100.00;101782.34;10397044;28;20041;-75
2023/09/07 12:55:34;;;;;;;0.10;0.10;;;;;;;34.60;100.00;101777.66;10416380;28;20049;-75
2023/09/07 13:00:35;;;;;;;1.85;0.40;;;;;;;34.86;100.00;101777.81;10422573;28;20072;-74
2023/09/07 13:05:37;;;;;;;0.20;0.20;;;;;;;35.42;100.00;101781.38;10399245;28;20049;-75
2023/09/07 13:10:39;;;;;;;0.03;0.03;;;;;;;34.93;100.00;101773.84;10415027;28;20069;-74
2023/09/07 13:15:41;;;;;;;0.20;0.13;;;;;;;34.50;100.00;101763.16;10405388;28;20507;-75
2023/09/07 13:20:43;;;;;;;0.10;0.10;;;;;;;35.22;100.00;101761.22;10416424;28;20049;-76
2023/09/07 13:25:44;;;;;;;0.10;0.10;;;;;;;35.40;100.00;101759.19;10414142;28;20041;-76
2023/09/07 13:30:46;;;;;;;0.52;0.52;;;;;;;33.85;100.00;101736.66;10402425;28;20048;-76
2023/09/07 13:35:48;;;;;;;0.52;0.28;;;;;;;33.84;100.00;101732.31;10429532;28;20053;-76
2023/09/07 13:40:50;;;;;;;0.47;0.30;;;;;;;34.57;100.00;101729.69;10420699;28;20052;-76
2023/09/07 13:45:52;;;;;;;0.95;0.43;;;;;;;34.75;100.00;101733.88;10409529;28;20468;-76
2023/09/07 13:50:53;;;;;;;0.47;0.40;;;;;;;34.06;100.00;101725.66;10403314;28;20497;-75
2023/09/07 13:55:55;;;;;;;0.45;0.40;;;;;;;33.81;100.00;101713.75;10390917;28;20076;-75
2023/09/07 14:00:57;;;;;;;0.20;0.20;;;;;;;34.62;100.00;101730.25;10410132;28;20048;-75
2023/09/07 14:05:58;;;;;;;0.73;0.25;;;;;;;34.47;100.00;101724.06;10397745;28;20512;-75
2023/09/07 14:11:01;;;;;;;0.38;0.17;;;;;;;34.59;100.00;101731.31;10406874;28;20725;-74
2023/09/07 14:16:03;;;;;;;0.20;0.20;;;;;;;34.84;100.00;101731.56;10381948;28;20061;-75
2023/09/07 14:21:04;;;;;;;0.15;0.15;;;;;;;34.16;100.00;101729.47;10407297;28;20484;-74
2023/09/07 14:26:06;;;;;;;1.75;0.20;;;;;;;34.54;100.00;101736.09;10410566;28;20047;-75
2023/09/07 14:31:08;;;;;;;0.63;0.40;;;;;;;33.94;100.00;101716.56;10412143;28;20030;-74
2023/09/07 14:36:10;;;;;;;0.15;0.15;;;;;;;34.53;100.00;101723.69;10416460;28;20077;-75
2023/09/07 14:41:18;;;;;;;0.30;0.20;;;;;;;33.68;100.00;101718.09;10407743;28;20500;-75
2023/09/07 14:46:23;;;;;;;0.13;0.13;;;;;;;34.09;100.00;101714.75;10382481;28;20061;-74
2023/09/07 14:51:26;;;;;;;0.30;0.20;;;;;;;33.87;98.89;101714.34;10407644;28;20037;-74
2023/09/07 14:56:29;;;;;;;0.30;0.30;;;;;;;34.43;100.00;101707.34;10405145;28;20053;-74
2023/09/07 15:01:31;;;;;;;0.63;0.15;;;;;;;33.94;97.02;101705.00;10406991;28;20054;-75
2023/09/07 15:06:34;;;;;;;0.75;0.52;;;;;;;33.91;99.95;101708.72;10404435;28;20045;-74
2023/09/07 15:11:35;;;;;;;0.25;0.10;;;;;;;34.31;100.00;101710.75;10400600;28;20076;-74
2023/09/07 15:16:37;;;;;;;0.10;0.10;;;;;;;34.40;100.00;101696.84;10393772;28;20490;-75
2023/09/07 15:21:39;;;;;;;0.15;0.10;;;;;;;34.19;100.00;101708.84;10397103;28;20057;-74
2023/09/07 15:26:45;;;;;;;0.13;0.10;;;;;;;34.26;100.00;101704.84;10399246;28;20054;-75
2023/09/07 15:31:46;;;;;;;0.40;0.30;;;;;;;34.40;100.00;101698.66;10411275;28;20092;-74
2023/09/07 15:36:48;;;;;;;0.30;0.30;;;;;;;34.68;100.00;101700.44;10412555;28;20055;-75
2023/09/07 15:41:51;;;;;;;0.65;0.03;;;;;;;34.44;100.00;101687.66;10396407;28;20041;-74
2023/09/07 15:46:53;;;;;;;0.50;0.43;;;;;;;33.62;100.00;101684.59;10414025;28;20053;-74
2023/09/07 15:51:55;;;;;;;0.57;0.32;;;;;;;33.67;100.00;101682.50;10421269;28;20088;-74
2023/09/07 15:56:57;;;;;;;0.47;0.40;;;;;;;33.88;100.00;101681.31;10388619;28;20060;-74
2023/09/07 16:02:06;;;;;;;0.43;0.20;;;;;;;34.02;100.00;101684.00;10428893;28;20092;-74
2023/09/07 16:07:07;;;;;;;0.00;0.00;;;;;;;34.32;100.00;101685.72;10402502;28;20056;-74
2023/09/07 16:12:09;;;;;;;0.00;0.00;;;;;;;33.89;100.00;101680.38;10402421;28;20053;-74
2023/09/07 16:17:11;;;;;;;0.03;0.00;;;;;;;34.78;100.00;101687.31;10424450;28;20056;-75
2023/09/07 16:22:13;;;;;;;0.00;0.00;;;;;;;34.72;100.00;101696.59;10402264;28;20073;-75
2023/09/07 16:27:17;;;;;;;0.10;0.00;;;;;;;34.54;100.00;101687.94;10414449;28;20045;-73
2023/09/07 16:32:19;;;;;;;0.20;0.00;;;;;;;33.99;100.00;101677.03;10397948;28;20048;-74
2023/09/07 16:37:25;;;;;;;0.20;0.10;;;;;;;33.92;100.00;101681.03;10401781;28;20069;-75
2023/09/07 16:42:28;;;;;;;0.10;0.10;;;;;;;33.80;100.00;101681.78;10394533;28;20056;-74
2023/09/07 16:47:30;;;;;;;0.00;0.00;;;;;;;34.19;100.00;101682.97;10391355;28;20046;-75
2023/09/07 16:52:32;;;;;;;0.68;0.20;;;;;;;33.78;100.00;101673.81;10400042;28;20053;-75
2023/09/07 16:57:34;;;;;;;0.25;0.13;;;;;;;33.73;100.00;101681.25;10381628;28;20057;-74
2023/09/07 17:02:36;;;;;;;0.20;0.17;;;;;;;34.12;100.00;101677.16;10395961;28;20117;-75
2023/09/07 17:07:38;;;;;;;0.10;0.00;;;;;;;33.83;100.00;101682.44;10397409;28;20578;-74
2023/09/07 17:12:40;;;;;;;0.05;0.05;;;;;;;33.45;100.00;101680.25;10391644;28;20262;-75
2023/09/07 17:17:41;;;;;;;0.00;0.00;;;;;;;32.69;100.00;101683.63;10382539;28;20064;-74
2023/09/07 17:22:45;;;;;;;0.05;0.05;;;;;;;32.92;100.00;101685.03;10376173;28;20472;-74
2023/09/07 17:27:47;;;;;;;0.30;0.30;;;;;;;32.51;100.00;101682.84;10401927;28;20084;-74
2023/09/07 17:32:49;;;;;;;0.52;0.10;;;;;;;32.45;100.00;101676.03;10412319;28;20049;-75
2023/09/07 17:37:51;;;;;;;0.10;0.00;;;;;;;32.17;100.00;101682.84;10407331;28;20102;-74
2023/09/07 17:42:52;;;;;;;0.00;0.00;;;;;;;32.27;100.00;101688.56;10418890;28;20079;-74
2023/09/07 17:47:54;;;;;;;0.20;0.20;;;;;;;31.69;100.00;101687.09;10394402;28;20412;-74
2023/09/07 17:52:56;;;;;;;0.08;0.08;;;;;;;31.28;100.00;101689.09;10417832;28;20045;-74
2023/09/07 17:57:58;;;;;;;0.05;0.05;;;;;;;30.79;100.00;101691.44;10394252;28;20046;-74
2023/09/07 18:02:59;;;;;;;0.00;0.00;;;;;;;30.45;100.00;101693.84;10384337;28;20042;-74
2023/09/07 18:08:02;;;;;;;0.05;0.00;;;;;;;29.79;100.00;101699.38;10402013;28;20058;-74
2023/09/07 18:13:04;;;;;;;0.30;0.08;;;;;;;29.06;100.00;101705.84;10423028;28;20041;-73
2023/09/07 18:18:05;;;;;;;0.30;0.10;;;;;;;28.73;100.00;101703.56;10412674;28;20517;-73
2023/09/07 18:23:08;;;;;;;0.00;0.00;;;;;;;29.01;100.00;101697.16;10395477;28;20216;-74
2023/09/07 18:28:10;;;;;;;0.47;0.17;;;;;;;28.91;100.00;101690.53;10378433;28;20402;-75
2023/09/07 18:33:13;;;;;;;0.10;0.10;;;;;;;28.66;100.00;101694.06;10383766;28;20045;-73
2023/09/07 18:38:14;;;;;;;0.22;0.22;;;;;;;28.59;100.00;101700.53;10398490;28;20528;-74
2023/09/07 18:43:16;;;;;;;0.15;0.13;;;;;;;29.00;100.00;101700.78;10382413;28;20045;-73
2023/09/07 18:48:18;;;;;;;0.30;0.20;;;;;;;28.15;100.00;101703.88;10374221;28;20103;-74
2023/09/07 18:53:19;;;;;;;0.25;0.15;;;;;;;27.95;100.00;101699.25;10402588;28;20066;-74
2023/09/07 18:58:22;;;;;;;0.10;0.00;;;;;;;27.85;100.00;101704.03;10416630;28;20485;-75
2023/09/07 19:03:23;;;;;;;0.10;0.10;;;;;;;27.58;100.00;101697.88;10397184;28;20381;-74
2023/09/07 19:08:25;;;;;;;1.20;0.68;;;;;;;27.44;100.00;101696.50;10392899;28;20061;-74
2023/09/07 19:13:27;;;;;;;0.00;0.00;;;;;;;27.42;100.00;101690.44;10398245;28;20144;-74
2023/09/07 19:18:28;;;;;;;0.00;0.00;;;;;;;26.84;100.00;101693.97;10395410;28;20057;-74
2023/09/07 19:23:30;;;;;;;0.00;0.00;;;;;;;27.33;100.00;101695.97;10403865;28;20099;-74
2023/09/07 19:28:32;;;;;;;0.38;0.20;;;;;;;26.85;100.00;101693.03;10378737;28;20409;-75
2023/09/07 19:33:33;;;;;;;0.00;0.00;;;;;;;26.33;100.00;101698.03;10420646;28;20428;-74
2023/09/07 19:38:35;;;;;;;0.22;0.22;;;;;;;26.59;100.00;101693.75;10395813;28;20053;-74
2023/09/07 19:43:37;;;;;;;0.93;0.20;;;;;;;26.57;100.00;101695.59;10384204;28;20046;-74
2023/09/07 19:48:39;;;;;;;0.10;0.10;;;;;;;25.78;100.00;101687.13;10437568;28;20052;-74
2023/09/07 19:53:42;;;;;;;0.20;0.10;;;;;;;26.33;100.00;101695.38;10383442;28;20049;-74
2023/09/07 19:58:44;;;;;;;0.00;0.00;;;;;;;26.29;100.00;101694.59;10387126;28;20097;-74
2023/09/07 20:03:48;;;;;;;0.45;0.30;;;;;;;26.45;100.00;101712.66;10397122;28;20046;-73
2023/09/07 20:08:50;;;;;;;0.10;0.10;;;;;;;26.52;100.00;101698.38;10401995;28;20152;-74
2023/09/07 20:13:52;;;;;;;0.20;0.10;;;;;;;26.41;100.00;101701.31;10398970;28;20050;-74
2023/09/07 20:18:53;;;;;;;0.00;0.00;;;;;;;26.84;100.00;101699.25;10408294;28;20056;-75
2023/09/07 20:23:55;;;;;;;1.60;0.20;;;;;;;26.98;100.00;101700.59;10397889;28;20056;-74
2023/09/07 20:28:57;;;;;;;0.13;0.13;;;;;;;26.79;100.00;101701.13;10400646;28;20053;-74
2023/09/07 20:33:58;;;;;;;0.22;0.20;;;;;;;26.92;100.00;101707.78;10414793;28;20041;-74
2023/09/07 20:39:00;;;;;;;0.68;0.30;;;;;;;26.86;100.00;101707.97;10430729;28;20052;-74
2023/09/07 20:44:06;;;;;;;0.10;0.10;;;;;;;26.81;100.00;101707.25;10392939;28;20046;-74
2023/09/07 20:49:08;;;;;;;0.38;0.25;;;;;;;26.79;100.00;101706.44;10422369;28;20048;-74
2023/09/07 20:54:11;;;;;;;0.95;0.38;;;;;;;26.59;100.00;101699.94;10392487;28;20156;-74
2023/09/07 20:59:14;;;;;;;0.20;0.10;;;;;;;26.73;100.00;101703.94;10403757;28;20128;-74
2023/09/07 21:04:16;;;;;;;0.47;0.20;;;;;;;26.77;100.00;101705.59;10427766;28;20043;-74
2023/09/07 21:09:18;;;;;;;0.13;0.13;;;;;;;26.25;100.00;101706.13;10414534;28;20053;-74
2023/09/07 21:14:19;;;;;;;0.10;0.10;;;;;;;26.64;100.00;101707.72;10394029;28;20048;-74
2023/09/07 21:19:21;;;;;;;0.03;0.03;;;;;;;26.29;100.00;101710.44;10413220;28;20037;-73
2023/09/07 21:24:23;;;;;;;0.22;0.08;;;;;;;25.95;100.00;101708.66;10391642;28;20046;-73
2023/09/07 21:29:25;;;;;;;0.00;0.00;;;;;;;26.07;100.00;101707.50;10393251;28;20485;-74
2023/09/07 21:34:26;;;;;;;0.13;0.13;;;;;;;25.90;100.00;101715.84;10392221;28;20490;-74
2023/09/07 21:39:28;;;;;;;0.00;0.00;;;;;;;25.28;100.00;101706.72;10395006;28;20060;-75
2023/09/07 21:44:29;;;;;;;0.80;0.20;;;;;;;25.44;100.00;101701.13;10364968;28;20393;-73
2023/09/07 21:49:31;;;;;;;0.00;0.00;;;;;;;25.46;100.00;101700.22;10394928;28;20045;-74
2023/09/07 21:54:33;;;;;;;0.00;0.00;;;;;;;25.42;100.00;101692.41;10411784;28;20634;-72
2023/09/07 21:59:35;;;;;;;0.80;0.30;;;;;;;25.54;100.00;101696.53;10413192;28;20072;-73
2023/09/07 22:04:37;;;;;;;0.10;0.10;;;;;;;25.35;100.00;101696.91;10393219;28;20532;-74
2023/09/07 22:09:39;;;;;;;0.17;0.03;;;;;;;25.32;100.00;101703.13;10403276;28;20496;-73
2023/09/07 22:14:40;;;;;;;0.98;0.40;;;;;;;25.12;100.00;101694.81;10408095;28;20504;-74
2023/09/07 22:19:42;;;;;;;0.10;0.10;;;;;;;25.23;100.00;101697.22;10413667;28;20060;-74
2023/09/07 22:24:44;;;;;;;0.47;0.40;;;;;;;25.20;100.00;101692.88;10391959;28;20037;-74
2023/09/07 22:29:46;;;;;;;0.10;0.10;;;;;;;25.39;100.00;101687.19;10391237;28;20080;-74
2023/09/07 22:34:47;;;;;;;0.38;0.28;;;;;;;25.26;100.00;101698.00;10396084;28;20037;-73
2023/09/07 22:39:49;;;;;;;0.40;0.35;;;;;;;25.14;100.00;101687.72;10395269;28;20053;-73
2023/09/07 22:44:51;;;;;;;0.00;0.00;;;;;;;25.01;100.00;101681.88;10409470;28;20042;-74
2023/09/07 22:49:52;;;;;;;0.13;0.13;;;;;;;25.11;100.00;101679.91;10429749;28;20045;-74
2023/09/07 22:54:56;;;;;;;0.05;0.05;;;;;;;24.88;100.00;101689.19;10423508;28;20493;-73